Time;durP1;ratioP1;P1;durP2;ratioP2;P2;SDS_P1;SDS_P2;PMS_P1;PMS_P2;Temp;Humidity;BMP_temperature;BMP_pressure;BME280_temperature;BME280_humidity;BME280_pressure;Samples;Min_cycle;Max_cycle;Signal;HPM_P1;HPM_P2
2022/07/18 00:01:44;;;;;;;7.57;2.83;;;11.70;99.90;;;;;;10169115;29;20040;-83
2022/07/18 00:06:45;;;;;;;6.22;3.00;;;11.70;99.90;;;;;;10150891;29;20037;-82
2022/07/18 00:11:45;;;;;;;6.90;3.22;;;11.60;99.90;;;;;;10160469;29;20056;-83
2022/07/18 00:16:47;;;;;;;8.40;3.10;;;11.60;99.90;;;;;;10164090;29;20047;-83
2022/07/18 00:21:48;;;;;;;5.57;3.13;;;11.40;99.90;;;;;;10159392;29;20088;-83
2022/07/18 00:26:48;;;;;;;7.18;3.85;;;11.30;99.90;;;;;;10162308;29;20111;-83
2022/07/18 00:31:49;;;;;;;4.95;3.50;;;11.10;99.90;;;;;;10161853;29;20072;-83
2022/07/18 00:36:50;;;;;;;6.38;4.75;;;11.10;99.90;;;;;;10162875;29;20048;-84
2022/07/18 00:41:51;;;;;;;8.02;4.03;;;11.00;99.90;;;;;;10164847;29;20503;-84
2022/07/18 00:46:53;;;;;;;9.13;4.38;;;10.90;99.90;;;;;;10163501;29;20048;-84
2022/07/18 00:51:54;;;;;;;8.97;4.23;;;10.80;99.90;;;;;;10164111;29;20528;-84
2022/07/18 00:56:55;;;;;;;6.63;4.50;;;10.90;99.90;;;;;;10160980;29;20044;-83
2022/07/18 01:01:55;;;;;;;6.50;4.63;;;10.90;99.90;;;;;;10165827;29;20043;-84
2022/07/18 01:06:58;;;;;;;10.38;5.50;;;10.80;99.90;;;;;;10146324;29;20135;-84
2022/07/18 01:11:59;;;;;;;6.13;4.57;;;10.80;99.90;;;;;;10141593;29;20100;-84
2022/07/18 01:17:00;;;;;;;7.47;5.30;;;10.70;99.90;;;;;;10146810;29;20040;-84
2022/07/18 01:22:00;;;;;;;7.93;5.35;;;10.60;99.90;;;;;;10164051;29;20059;-84
2022/07/18 01:27:01;;;;;;;10.47;5.80;;;10.60;99.90;;;;;;10148467;29;20044;-84
2022/07/18 01:32:09;;;;;;;13.30;8.32;;;10.50;99.90;;;;;;10166013;29;20055;-83
2022/07/18 01:37:10;;;;;;;9.68;7.25;;;10.50;99.90;;;;;;10161843;29;20064;-83
2022/07/18 01:42:11;;;;;;;13.50;8.48;;;10.40;99.90;;;;;;10161342;29;20071;-82
2022/07/18 01:47:13;;;;;;;20.48;9.27;;;10.50;99.90;;;;;;10160624;29;20052;-81
2022/07/18 01:52:14;;;;;;;14.45;8.10;;;10.50;99.90;;;;;;10146012;29;20684;-81
2022/07/18 01:57:14;;;;;;;15.97;9.33;;;10.50;99.90;;;;;;10159421;29;20548;-82
2022/07/18 02:02:15;;;;;;;14.52;8.15;;;10.50;99.90;;;;;;10163858;29;20044;-82
2022/07/18 02:07:16;;;;;;;15.23;9.87;;;10.40;99.90;;;;;;10163514;29;20044;-82
2022/07/18 02:12:16;;;;;;;16.57;9.90;;;10.50;99.90;;;;;;10156342;29;20052;-83
2022/07/18 02:17:18;;;;;;;23.20;11.00;;;10.50;99.90;;;;;;10160294;29;20046;-82
2022/07/18 02:22:19;;;;;;;18.42;11.25;;;10.40;99.90;;;;;;10161307;29;20043;-82
2022/07/18 02:27:20;;;;;;;17.88;11.40;;;10.30;99.90;;;;;;10158623;29;20050;-82
2022/07/18 02:32:22;;;;;;;17.58;10.38;;;10.30;99.90;;;;;;10163660;29;20044;-82
2022/07/18 02:37:22;;;;;;;17.40;11.27;;;10.40;99.90;;;;;;10158555;29;20118;-83
2022/07/18 02:42:23;;;;;;;16.85;10.38;;;10.40;99.90;;;;;;10161849;29;20048;-84
2022/07/18 02:47:23;;;;;;;15.87;9.80;;;10.30;99.90;;;;;;10141028;29;20129;-82
2022/07/18 02:52:24;;;;;;;14.57;9.90;;;10.30;99.90;;;;;;10167558;29;20091;-81
2022/07/18 02:57:25;;;;;;;14.10;9.33;;;10.20;99.90;;;;;;10171758;29;20124;-82
2022/07/18 03:02:25;;;;;;;16.15;11.45;;;10.30;99.90;;;;;;10169316;29;20048;-82
2022/07/18 03:07:26;;;;;;;20.03;10.47;;;10.20;99.90;;;;;;10170300;29;20036;-82
2022/07/18 03:12:26;;;;;;;17.10;10.60;;;10.10;99.90;;;;;;10170598;29;20052;-84
2022/07/18 03:17:27;;;;;;;18.30;10.97;;;10.20;99.90;;;;;;10154372;29;20055;-85
2022/07/18 03:22:28;;;;;;;18.40;10.33;;;10.20;99.90;;;;;;10143605;29;20047;-83
2022/07/18 03:27:28;;;;;;;16.27;10.07;;;10.20;99.90;;;;;;10174293;29;20608;-82
2022/07/18 03:32:29;;;;;;;13.35;9.48;;;10.30;99.90;;;;;;10168305;29;20048;-81
2022/07/18 03:37:29;;;;;;;10.63;7.57;;;10.30;99.90;;;;;;10151750;29;20504;-82
2022/07/18 03:42:30;;;;;;;14.70;9.03;;;10.40;99.90;;;;;;10167973;29;20492;-84
2022/07/18 03:47:30;;;;;;;17.77;10.37;;;10.60;99.90;;;;;;10169011;29;20032;-84
2022/07/18 03:52:31;;;;;;;14.80;9.80;;;10.70;99.90;;;;;;10169510;29;20751;-85
2022/07/18 03:57:32;;;;;;;17.27;11.68;;;10.80;99.90;;;;;;10157397;29;20028;-88
2022/07/18 04:02:32;;;;;;;21.63;13.98;;;10.90;99.90;;;;;;10166937;29;20047;-84
2022/07/18 04:07:33;;;;;;;19.00;12.57;;;11.00;99.90;;;;;;10182395;29;20046;-85
2022/07/18 04:12:34;;;;;;;21.65;13.98;;;11.20;99.90;;;;;;10150134;29;20049;-84
2022/07/18 04:17:35;;;;;;;19.55;12.70;;;11.30;99.90;;;;;;10150200;29;20040;-84
2022/07/18 04:22:55;;;;;;;23.17;14.13;;;11.60;99.90;;;;;;10162254;29;20056;-84
2022/07/18 04:27:56;;;;;;;20.45;12.88;;;11.80;99.90;;;;;;10161679;29;20120;-83
2022/07/18 04:32:57;;;;;;;14.93;10.95;;;12.10;99.90;;;;;;10166022;29;20572;-84
2022/07/18 04:37:58;;;;;;;12.68;9.27;;;12.30;99.90;;;;;;10161745;29;20132;-85
2022/07/18 04:42:59;;;;;;;15.98;8.73;;;12.40;99.90;;;;;;10157596;29;20047;-84
2022/07/18 04:48:00;;;;;;;16.75;9.50;;;12.50;99.90;;;;;;10167826;29;20036;-84
2022/07/18 04:53:01;;;;;;;14.63;8.73;;;12.60;99.90;;;;;;10148043;23;20125;-82
2022/07/18 04:58:01;;;;;;;12.23;8.55;;;12.80;99.90;;;;;;10128567;29;20037;-82
2022/07/18 05:03:02;;;;;;;16.40;9.93;;;12.90;99.90;;;;;;10128408;29;20051;-82
2022/07/18 05:08:03;;;;;;;16.02;10.68;;;13.00;99.90;;;;;;10126163;29;20103;-82
2022/07/18 05:13:04;;;;;;;17.98;10.18;;;13.00;99.90;;;;;;10122458;29;20045;-82
2022/07/18 05:18:04;;;;;;;18.52;9.52;;;13.10;99.90;;;;;;10127362;29;20052;-83
2022/07/18 05:23:05;;;;;;;15.43;9.15;;;13.20;99.90;;;;;;10127261;29;20032;-82
2022/07/18 05:28:06;;;;;;;19.48;11.00;;;13.30;99.90;;;;;;10126888;29;20932;-83
2022/07/18 05:33:07;;;;;;;20.42;10.43;;;13.40;99.90;;;;;;10120410;29;20063;-83
2022/07/18 05:38:07;;;;;;;21.30;10.20;;;13.50;99.90;;;;;;10125123;29;20040;-83
2022/07/18 05:43:08;;;;;;;16.10;9.48;;;13.80;99.90;;;;;;10118135;29;20121;-82
2022/07/18 05:48:08;;;;;;;23.05;11.93;;;14.00;99.90;;;;;;10124304;29;20039;-83
2022/07/18 05:53:09;;;;;;;17.25;10.75;;;14.30;99.90;;;;;;10123819;29;20064;-83
2022/07/18 05:58:10;;;;;;;14.25;8.25;;;14.60;99.90;;;;;;10126141;29;20025;-83
2022/07/18 06:03:11;;;;;;;14.90;8.27;;;14.90;99.90;;;;;;10125776;29;20037;-83
2022/07/18 06:08:11;;;;;;;15.70;8.35;;;15.00;99.90;;;;;;10123093;29;20736;-83
2022/07/18 06:13:12;;;;;;;14.95;7.70;;;15.30;99.90;;;;;;10123793;29;20811;-83
2022/07/18 06:18:13;;;;;;;11.02;6.00;;;15.50;99.90;;;;;;10124998;29;20048;-83
2022/07/18 06:23:13;;;;;;;8.85;5.40;;;15.80;99.90;;;;;;10121158;29;20091;-83
2022/07/18 06:28:14;;;;;;;10.75;5.05;;;16.10;99.90;;;;;;10124352;29;20064;-82
2022/07/18 06:33:14;;;;;;;9.13;5.13;;;16.20;99.90;;;;;;10125177;29;20059;-83
2022/07/18 06:38:16;;;;;;;9.52;4.95;;;16.40;99.90;;;;;;10117949;29;20044;-83
2022/07/18 06:43:19;;;;;;;11.50;6.00;;;16.50;99.90;;;;;;10119010;29;20056;-83
2022/07/18 06:48:20;;;;;;;11.82;6.18;;;16.70;99.90;;;;;;10112284;29;20040;-82
2022/07/18 06:53:32;;;;;;;14.75;7.00;;;17.00;99.90;;;;;;10136591;29;20052;-82
2022/07/18 06:58:48;;;;;;;15.13;6.50;;;17.40;99.90;;;;;;10151173;29;20036;-83
2022/07/18 07:16:02;;;;;;;7.43;4.00;;;21.30;99.00;;;;;;10037451;29;20132;-83
2022/07/18 07:28:06;;;;;;;6.30;2.83;;;23.00;88.00;;;;;;9964404;29;20485;-84
2022/07/18 07:33:48;;;;;;;;;;;;;;;;;;;;;
2022/07/18 07:38:49;;;;;;;4.57;2.22;;;24.60;75.30;;;;;;10163334;29;20523;-84
2022/07/18 07:44:13;;;;;;;6.90;2.53;;;24.70;71.60;;;;;;10157379;29;20028;-83
2022/07/18 07:49:14;;;;;;;5.72;1.90;;;24.90;70.80;;;;;;10102741;29;1082369;-85
2022/07/18 07:54:14;;;;;;;3.25;1.70;;;24.50;70.20;;;;;;10157655;29;20055;-82
2022/07/18 07:59:15;;;;;;;3.60;2.05;;;24.10;69.10;;;;;;10164438;29;20396;-81
2022/07/18 08:04:28;;;;;;;9.38;3.10;;;23.80;71.50;;;;;;10147976;29;20063;-82
2022/07/18 08:22:28;;;;;;;5.05;1.98;;;23.70;67.80;;;;;;9968031;29;20047;-81
2022/07/18 08:27:32;;;;;;;5.90;1.65;;;23.50;69.80;;;;;;10133621;29;20035;-81
2022/07/18 08:32:33;;;;;;;3.53;1.73;;;23.40;69.20;;;;;;10159502;29;20147;-81
2022/07/18 08:37:34;;;;;;;4.35;1.90;;;23.40;70.60;;;;;;10166099;29;20036;-83
2022/07/18 08:42:35;;;;;;;4.75;1.70;;;23.50;71.50;;;;;;10145214;29;20084;-81
2022/07/18 08:47:36;;;;;;;7.47;1.70;;;23.70;70.80;;;;;;10164425;29;20072;-83
2022/07/18 08:59:28;;;;;;;2.92;1.40;;;24.10;68.40;;;;;;10161241;29;20060;-81
2022/07/18 09:05:17;;;;;;;;;;;;;;;;;;;;;
2022/07/18 09:10:18;;;;;;;3.75;1.75;;;24.20;64.10;;;;;;10040124;29;20505;-81
2022/07/18 09:15:19;;;;;;;3.22;1.42;;;24.50;66.60;;;;;;10136061;29;20096;-83
2022/07/18 09:20:19;;;;;;;4.13;1.58;;;24.70;65.10;;;;;;10118573;29;20119;-83
2022/07/18 09:25:22;;;;;;;5.13;1.60;;;24.90;65.10;;;;;;10157076;29;20131;-83
2022/07/18 09:30:29;;;;;;;2.97;1.63;;;24.80;64.30;;;;;;10154821;29;20044;-83
2022/07/18 09:35:36;;;;;;;2.75;1.77;;;25.00;62.80;;;;;;10155638;29;20048;-82
2022/07/18 09:40:39;;;;;;;4.57;1.70;;;25.00;62.10;;;;;;10161727;29;20123;-83
2022/07/18 09:45:44;;;;;;;3.38;1.65;;;25.10;64.00;;;;;;10162477;29;20119;-83
2022/07/18 09:50:47;;;;;;;5.10;1.70;;;25.30;65.90;;;;;;10156514;29;20056;-84
2022/07/18 09:55:52;;;;;;;2.40;1.20;;;25.60;65.90;;;;;;10153544;29;20052;-83
2022/07/18 10:00:54;;;;;;;2.90;1.33;;;25.60;62.50;;;;;;10149749;29;20134;-83
2022/07/18 10:05:57;;;;;;;3.88;1.75;;;25.50;63.30;;;;;;10138142;29;20106;-87
2022/07/18 10:10:59;;;;;;;3.85;1.63;;;25.60;63.30;;;;;;10138771;29;20620;-83
2022/07/18 10:16:01;;;;;;;5.57;2.00;;;25.50;61.20;;;;;;10161589;29;20080;-83
2022/07/18 10:21:12;;;;;;;3.53;1.40;;;25.40;63.60;;;;;;10162946;29;20043;-83
2022/07/18 10:26:17;;;;;;;5.88;1.85;;;25.60;62.20;;;;;;10164313;29;20447;-83
2022/07/18 10:31:18;;;;;;;4.10;1.58;;;25.80;61.20;;;;;;10163848;29;20445;-86
2022/07/18 10:36:23;;;;;;;3.88;1.40;;;25.70;63.50;;;;;;10157767;29;20104;-82
2022/07/18 10:41:24;;;;;;;2.25;1.30;;;25.80;63.50;;;;;;10160521;29;20028;-84
2022/07/18 10:52:52;;;;;;;3.88;1.52;;;26.10;59.60;;;;;;10141101;29;20084;-83
2022/07/18 10:57:53;;;;;;;3.05;1.38;;;26.30;63.90;;;;;;10145231;29;20083;-83
2022/07/18 11:03:10;;;;;;;4.07;1.67;;;26.40;61.20;;;;;;10157582;29;20044;-83
2022/07/18 11:08:12;;;;;;;5.03;1.95;;;26.60;64.20;;;;;;10137512;29;20043;-83
2022/07/18 11:13:27;;;;;;;4.43;1.70;;;26.90;58.30;;;;;;10151229;29;20052;-83
2022/07/18 11:18:30;;;;;;;2.67;1.75;;;26.80;64.60;;;;;;10149006;29;20055;-83
2022/07/18 11:23:42;;;;;;;4.90;1.75;;;26.80;62.20;;;;;;10146661;29;20032;-83
2022/07/18 11:29:10;;;;;;;4.38;1.70;;;26.90;61.10;;;;;;10144756;29;20032;-84
2022/07/18 11:34:11;;;;;;;4.65;1.88;;;26.90;61.10;;;;;;10154336;29;20071;-84
2022/07/18 11:39:13;;;;;;;4.43;2.50;;;27.00;59.70;;;;;;10161089;29;20135;-85
2022/07/18 11:44:28;;;;;;;4.10;1.40;;;27.40;61.60;;;;;;10159450;29;20091;-83
2022/07/18 11:49:29;;;;;;;8.90;1.85;;;27.40;61.10;;;;;;10170299;29;20563;-84
2022/07/18 11:54:32;;;;;;;5.95;4.07;;;26.90;57.70;;;;;;10169258;29;20056;-83
2022/07/18 11:59:38;;;;;;;4.05;1.38;;;26.50;59.80;;;;;;10165595;29;20143;-83
2022/07/18 12:04:39;;;;;;;3.05;1.45;;;26.50;61.90;;;;;;10150249;29;20040;-83
2022/07/18 12:09:40;;;;;;;4.80;1.40;;;26.40;63.70;;;;;;10165634;29;20389;-86
2022/07/18 12:14:41;;;;;;;1.77;1.05;;;26.30;60.80;;;;;;10150865;29;20052;-85
2022/07/18 12:19:44;;;;;;;2.88;1.50;;;26.30;61.70;;;;;;10151583;29;20028;-86
2022/07/18 12:24:56;;;;;;;4.00;1.30;;;26.60;63.40;;;;;;10170138;29;20143;-83
2022/07/18 12:30:07;;;;;;;3.42;1.60;;;27.10;58.90;;;;;;10165189;29;20063;-84
2022/07/18 12:35:19;;;;;;;4.95;1.45;;;27.40;59.80;;;;;;10163789;29;20135;-83
2022/07/18 12:40:22;;;;;;;2.00;1.20;;;26.90;62.30;;;;;;10166189;29;20523;-82
2022/07/18 12:45:22;;;;;;;6.13;1.63;;;27.40;62.40;;;;;;10146468;29;20048;-83
2022/07/18 12:50:23;;;;;;;3.42;1.30;;;27.60;55.60;;;;;;10148861;29;20067;-86
2022/07/18 12:55:25;;;;;;;2.55;1.52;;;27.40;59.90;;;;;;10166094;29;20079;-82
2022/07/18 13:00:30;;;;;;;3.05;1.38;;;27.40;58.40;;;;;;10167362;29;20132;-84
2022/07/18 13:05:30;;;;;;;;;;;27.60;58.20;;;;;;10142412;29;20040;-82
2022/07/18 13:10:32;;;;;;;3.50;1.45;;;27.90;61.20;;;;;;10166825;29;20288;-88
2022/07/18 13:15:32;;;;;;;1.85;1.02;;;28.00;56.20;;;;;;10160060;29;20124;-84
2022/07/18 13:20:33;;;;;;;2.03;1.17;;;28.00;59.50;;;;;;10165068;29;20061;-86
2022/07/18 13:31:34;;;;;;;5.20;1.65;;;28.20;56.20;;;;;;10161342;29;20040;-83
2022/07/18 13:36:44;;;;;;;4.07;1.40;;;28.40;59.50;;;;;;10147715;29;20626;-84
2022/07/18 13:41:46;;;;;;;1.88;1.10;;;28.60;58.60;;;;;;10146973;29;21033;-84
2022/07/18 13:59:25;;;;;;;2.65;1.30;;;27.60;59.30;;;;;;10116463;29;20048;-85
2022/07/18 14:04:35;;;;;;;4.57;1.90;;;27.60;58.90;;;;;;10123967;29;20048;-85
2022/07/18 14:15:41;;;;;;;2.38;1.20;;;27.40;57.10;;;;;;10121334;29;20048;-85
2022/07/18 14:20:41;;;;;;;4.10;1.77;;;27.30;59.40;;;;;;10101898;29;20493;-84
2022/07/18 14:43:44;;;;;;;4.15;1.65;;;26.40;60.00;;;;;;10120508;29;20036;-86
2022/07/18 15:00:47;;;;;;;4.40;1.42;;;25.80;60.10;;;;;;10118728;29;20080;-86
2022/07/18 15:06:48;;;;;;;2.05;1.33;;;25.80;60.50;;;;;;10129110;29;20495;-85
2022/07/18 15:18:12;;;;;;;3.10;2.10;;;25.70;56.50;;;;;;10126001;29;20524;-85
2022/07/18 15:23:12;;;;;;;3.78;1.77;;;25.40;60.50;;;;;;10131109;29;20729;-85
2022/07/18 15:28:13;;;;;;;3.47;2.13;;;25.40;60.50;;;;;;10127694;29;20041;-85
2022/07/18 15:50:05;;;;;;;7.18;2.47;;;25.30;61.00;;;;;;11477632;23;20064;-85
2022/07/18 15:55:06;;;;;;;2.22;1.40;;;25.20;61.10;;;;;;10026763;29;20172;-84
2022/07/18 16:00:55;;;;;;;2.47;1.25;;;25.20;59.90;;;;;;10043111;29;20049;-83
2022/07/18 16:06:06;;;;;;;5.28;2.15;;;25.20;60.80;;;;;;10039077;29;20046;-87
2022/07/18 16:12:10;;;;;;;3.00;1.50;;;25.20;61.00;;;;;;10027384;29;20410;-84
2022/07/18 16:17:45;;;;;;;6.32;2.10;;;25.10;58.40;;;;;;10119626;29;20608;-85
2022/07/18 16:22:46;;;;;;;3.75;1.60;;;25.10;63.30;;;;;;10109075;29;20044;-84
2022/07/18 16:27:46;;;;;;;2.47;1.60;;;25.00;61.80;;;;;;10128238;29;20092;-82
2022/07/18 16:32:47;;;;;;;3.90;1.30;;;24.80;63.20;;;;;;10122792;29;20067;-85
2022/07/18 16:37:48;;;;;;;2.90;1.83;;;24.80;61.80;;;;;;10108060;29;20150;-81
2022/07/18 16:42:49;;;;;;;4.75;1.70;;;24.70;62.60;;;;;;10119679;29;20045;-83
2022/07/18 16:47:50;;;;;;;2.78;1.40;;;24.60;63.60;;;;;;10126810;29;20413;-88
2022/07/18 16:52:51;;;;;;;2.42;1.80;;;24.50;63.40;;;;;;10108722;29;20092;-82
2022/07/18 16:57:51;;;;;;;4.40;1.88;;;24.30;63.40;;;;;;10107958;29;20104;-85
2022/07/18 17:02:53;;;;;;;3.95;1.90;;;24.20;65.00;;;;;;10128004;29;20631;-82
2022/07/18 17:07:53;;;;;;;6.07;2.25;;;24.10;64.80;;;;;;10123164;29;20052;-83
2022/07/18 17:12:54;;;;;;;2.78;1.73;;;23.80;71.50;;;;;;10125585;29;20053;-82
2022/07/18 17:17:57;;;;;;;3.88;1.90;;;23.40;69.70;;;;;;10124869;29;20176;-82
2022/07/18 17:22:59;;;;;;;5.03;1.90;;;23.00;72.50;;;;;;10126615;29;20047;-81
2022/07/18 17:28:00;;;;;;;6.28;3.00;;;22.60;71.40;;;;;;10118859;29;20123;-86
2022/07/18 17:33:01;;;;;;;6.20;3.88;;;22.30;73.30;;;;;;10126197;29;20045;-83
2022/07/18 17:38:04;;;;;;;7.15;3.40;;;22.00;73.40;;;;;;10109130;29;20045;-86
2022/07/18 17:43:05;;;;;;;8.55;4.13;;;21.60;74.40;;;;;;10122443;29;20115;-81
2022/07/18 17:48:06;;;;;;;34.45;20.95;;;21.30;75.00;;;;;;10124668;29;20063;-83
2022/07/18 17:53:07;;;;;;;62.63;37.63;;;21.20;75.40;;;;;;10103704;29;20043;-82
2022/07/18 17:58:07;;;;;;;64.95;36.58;;;20.90;75.90;;;;;;10102046;29;20386;-86
2022/07/18 18:03:08;;;;;;;34.85;20.45;;;20.80;76.50;;;;;;10120063;29;20048;-88
2022/07/18 18:08:08;;;;;;;14.50;8.02;;;20.50;76.50;;;;;;10107691;29;20135;-85
2022/07/18 18:13:09;;;;;;;10.30;4.55;;;20.40;77.20;;;;;;10122559;29;20045;-87
2022/07/18 18:18:10;;;;;;;6.57;3.45;;;20.20;77.70;;;;;;10106179;29;20409;-85
2022/07/18 18:23:10;;;;;;;5.50;3.10;;;19.90;78.30;;;;;;10105444;29;20029;-86
2022/07/18 18:28:11;;;;;;;4.35;2.92;;;19.60;79.60;;;;;;10106105;29;20144;-85
2022/07/18 18:33:12;;;;;;;6.72;3.10;;;19.50;79.70;;;;;;10119881;29;20081;-85
2022/07/18 18:38:12;;;;;;;6.55;3.33;;;19.30;80.40;;;;;;10122056;29;20560;-83
2022/07/18 18:43:13;;;;;;;4.97;2.70;;;19.20;81.10;;;;;;10123614;29;20044;-86
2022/07/18 18:48:14;;;;;;;6.32;2.38;;;19.10;81.20;;;;;;10124668;29;20401;-85
2022/07/18 18:53:15;;;;;;;4.03;2.60;;;18.90;81.30;;;;;;10120142;29;20051;-83
2022/07/18 18:58:16;;;;;;;4.80;2.10;;;18.80;82.40;;;;;;10120775;29;20052;-84
2022/07/18 19:03:17;;;;;;;5.28;2.40;;;18.70;82.10;;;;;;10123401;29;20131;-84
2022/07/18 19:08:18;;;;;;;6.80;2.20;;;18.60;82.80;;;;;;10124123;29;20650;-82
2022/07/18 19:13:18;;;;;;;4.57;2.08;;;18.50;84.30;;;;;;10121598;29;20052;-83
2022/07/18 19:18:20;;;;;;;5.95;2.33;;;18.30;85.50;;;;;;10123879;29;20119;-81
2022/07/18 19:23:21;;;;;;;4.85;2.90;;;18.10;85.40;;;;;;10121203;29;20048;-81
2022/07/18 19:28:22;;;;;;;0.82;0.25;;;18.00;84.70;;;;;;10119300;29;20045;-84
2022/07/18 19:33:23;;;;;;;9.18;3.60;;;18.00;85.40;;;;;;10127929;29;20063;-81
2022/07/18 19:38:24;;;;;;;9.48;3.92;;;18.00;86.70;;;;;;10129842;29;20055;-81
2022/07/18 19:43:25;;;;;;;4.78;3.22;;;18.00;87.70;;;;;;10113844;29;20127;-83
2022/07/18 19:48:25;;;;;;;5.47;3.10;;;17.90;88.90;;;;;;10129491;29;20052;-82
2022/07/18 19:53:26;;;;;;;9.85;3.40;;;17.80;88.50;;;;;;10126263;29;20060;-83
2022/07/18 19:58:27;;;;;;;7.35;3.03;;;17.60;89.50;;;;;;10129680;29;20049;-82
2022/07/18 20:03:27;;;;;;;5.78;3.28;;;17.70;90.20;;;;;;10127755;29;20462;-81
2022/07/18 20:08:28;;;;;;;9.38;4.10;;;17.60;90.10;;;;;;10127750;29;20048;-81
2022/07/18 20:13:28;;;;;;;7.85;3.75;;;17.60;90.40;;;;;;10120824;29;20561;-81
2022/07/18 20:18:29;;;;;;;7.05;3.55;;;17.60;90.70;;;;;;10115399;29;20075;-81
2022/07/18 20:23:30;;;;;;;9.98;3.95;;;17.60;91.10;;;;;;10125331;29;20911;-81
2022/07/18 20:28:30;;;;;;;5.95;3.35;;;17.50;91.40;;;;;;10114437;29;20040;-83
2022/07/18 20:33:31;;;;;;;5.43;3.63;;;17.40;92.50;;;;;;10117167;29;20605;-82
2022/07/18 20:38:32;;;;;;;6.88;4.22;;;17.20;93.00;;;;;;10127178;29;20043;-82
2022/07/18 20:43:32;;;;;;;7.90;4.18;;;17.10;93.70;;;;;;10124829;29;20870;-82
2022/07/18 20:48:33;;;;;;;8.23;4.10;;;17.00;94.10;;;;;;10119707;29;20068;-82
2022/07/18 20:53:34;;;;;;;5.80;3.63;;;17.00;95.00;;;;;;10122147;29;20058;-82
2022/07/18 20:58:35;;;;;;;7.53;3.88;;;16.90;95.10;;;;;;10109561;29;20124;-82
2022/07/18 21:03:35;;;;;;;7.80;3.58;;;16.90;95.50;;;;;;10122442;29;20032;-83
2022/07/18 21:08:37;;;;;;;9.43;4.30;;;16.90;96.00;;;;;;10108756;29;20029;-84
2022/07/18 21:13:38;;;;;;;8.68;4.78;;;16.80;97.00;;;;;;10125442;29;20040;-82
2022/07/18 21:18:38;;;;;;;11.68;4.30;;;16.70;97.80;;;;;;10109946;29;20457;-84
2022/07/18 21:23:39;;;;;;;10.75;4.40;;;16.70;98.60;;;;;;10114517;29;20040;-82
2022/07/18 21:28:41;;;;;;;9.75;4.07;;;16.70;99.10;;;;;;10091950;29;20074;-84
2022/07/18 21:33:42;;;;;;;8.30;4.63;;;16.60;99.90;;;;;;10115287;29;20410;-84
2022/07/18 21:38:43;;;;;;;8.27;4.57;;;16.50;99.90;;;;;;10107380;29;20047;-86
2022/07/18 21:43:43;;;;;;;11.15;4.70;;;16.50;99.90;;;;;;10109465;29;20523;-83
2022/07/18 21:48:44;;;;;;;13.40;5.40;;;16.40;99.90;;;;;;10083934;29;20151;-83
2022/07/18 21:53:45;;;;;;;12.50;4.40;;;16.40;99.90;;;;;;10112712;29;20494;-84
2022/07/18 21:58:45;;;;;;;10.40;4.55;;;16.40;99.90;;;;;;10124148;29;20048;-83
2022/07/18 22:03:46;;;;;;;15.45;4.68;;;16.30;99.90;;;;;;10124821;29;20397;-84
2022/07/18 22:08:46;;;;;;;9.98;4.88;;;16.20;99.90;;;;;;10118491;29;20781;-84
2022/07/18 22:13:47;;;;;;;7.47;3.97;;;16.20;99.90;;;;;;10107437;29;20055;-83
2022/07/18 22:18:49;;;;;;;8.02;4.60;;;16.10;99.90;;;;;;10121585;29;20127;-86
2022/07/18 22:23:50;;;;;;;9.27;4.80;;;16.10;99.90;;;;;;10123535;29;20041;-83
2022/07/18 22:28:50;;;;;;;11.35;5.18;;;16.00;99.90;;;;;;10123785;29;20063;-84
2022/07/18 22:33:51;;;;;;;8.60;4.90;;;15.90;99.90;;;;;;10118838;29;20059;-82
2022/07/18 22:38:52;;;;;;;9.50;4.88;;;15.70;99.90;;;;;;10121274;29;20478;-83
2022/07/18 22:43:53;;;;;;;10.82;5.38;;;15.70;99.90;;;;;;10121141;29;20044;-83
2022/07/18 22:48:53;;;;;;;7.88;4.60;;;15.70;99.90;;;;;;10124824;29;20528;-84
2022/07/18 22:53:54;;;;;;;6.60;4.35;;;15.70;99.90;;;;;;10118584;29;20053;-83
2022/07/18 22:58:54;;;;;;;8.02;5.25;;;15.70;99.90;;;;;;10115893;29;20066;-86
2022/07/18 23:03:55;;;;;;;10.77;4.70;;;15.70;99.90;;;;;;10108924;29;20037;-84
2022/07/18 23:08:55;;;;;;;9.02;5.28;;;15.60;99.90;;;;;;10111749;29;20520;-86
2022/07/18 23:13:57;;;;;;;8.60;5.05;;;15.50;99.90;;;;;;10112385;29;20043;-85
2022/07/18 23:18:59;;;;;;;14.20;6.07;;;15.40;99.90;;;;;;10127313;29;20121;-84
2022/07/18 23:23:59;;;;;;;10.15;5.50;;;15.30;99.90;;;;;;10128602;29;20044;-86
2022/07/18 23:29:00;;;;;;;9.02;5.70;;;15.30;99.90;;;;;;10131112;29;20060;-85
2022/07/18 23:34:00;;;;;;;11.85;6.18;;;15.40;99.90;;;;;;10129390;29;20049;-83
2022/07/18 23:39:01;;;;;;;12.75;6.20;;;15.40;99.90;;;;;;10130796;29;20044;-85
2022/07/18 23:44:02;;;;;;;11.80;6.35;;;15.50;99.90;;;;;;10131266;29;21869;-84
2022/07/18 23:49:02;;;;;;;11.30;6.38;;;15.60;99.90;;;;;;10130267;29;20059;-84
2022/07/18 23:54:03;;;;;;;16.10;6.70;;;15.70;99.90;;;;;;10130767;29;20056;-84
2022/07/18 23:59:04;;;;;;;13.55;7.38;;;15.80;99.90;;;;;;10112308;29;20037;-84
